Spacecraft Satellite overpass computed based on SGP4 code. Updated every day at 2:25 LT
Spacecraft : Terra    
         GMT                             Satellite      Satellite     Solar          Solar         Scat ang       
  year-mo-da hr:mn:sc    elevation     azimuth    elevation   azimuth    (bk=180)     
  2018-04-25 08:00:09     11.9             86.0          42.2           126.7         133.4
  2018-04-25 09:38:38     83.7            104.5          51.9           159.3         145.2
  2018-04-25 11:15:47     16.5            303.5          52.2           198.2          94.0
  2018-04-25 19:11:29     23.4             60.8         -12.6           310.3        -999.0
  2018-04-25 20:48:55     54.6            259.4         -22.4           333.1        -999.0
Spacecraft : Aqua    
         GMT                             Satellite      Satellite     Solar          Solar         Scat ang       
  year-mo-da hr:mn:sc    elevation     azimuth    elevation   azimuth    (bk=180)     
  2018-04-25 00:13:27     44.8             98.7         -22.5            27.3        -999.0
  2018-04-25 01:51:01     27.5            297.3         -12.7            50.1        -999.0
  2018-04-25 09:46:45     14.1             54.5          52.3           162.4          90.6
  2018-04-25 11:23:47     81.4             73.5          51.8           201.2         136.1
  2018-04-25 13:02:07     14.6            272.2          42.1           233.7         137.0
  2018-04-25 23:17:59     15.4             88.3         -25.3            12.9        -999.0
Spacecraft : CALIPSO    
         GMT                             Satellite      Satellite     Solar          Solar         Scat ang       
  year-mo-da hr:mn:sc    elevation     azimuth    elevation   azimuth    (bk=180)     
  2018-04-25 00:15:02     38.6             97.4         -22.4            27.7        -999.0
  2018-04-25 01:52:42     31.2            295.9         -12.5            50.5        -999.0
  2018-04-25 09:48:29     12.4             53.0          52.4           163.1          88.0
  2018-04-25 11:25:24     70.6             72.3          51.7           201.9         127.5
  2018-04-25 13:03:39     16.9            270.7          41.9           234.1         140.0
  2018-04-25 23:19:30     13.2             86.9         -25.2            13.3        -999.0
Spacecraft : CloudSat    
         GMT                             Satellite      Satellite     Solar          Solar         Scat ang       
  year-mo-da hr:mn:sc    elevation     azimuth    elevation   azimuth    (bk=180)     
  2018-04-25 00:21:06     40.2             97.9         -21.9            29.3        -999.0
  2018-04-25 01:58:27     29.7            296.3         -11.7            51.7        -999.0
  2018-04-25 09:52:53     12.2             53.2          52.6           164.8          87.0
  2018-04-25 11:29:33     71.4             72.5          51.5           203.4         127.6
  2018-04-25 13:07:31     16.3            270.9          41.4           235.2         140.3
  2018-04-25 23:21:36     12.5             86.7         -25.2            13.8        -999.0
Spacecraft : ISS    
         GMT                             Satellite      Satellite     Solar          Solar         Scat ang       
  year-mo-da hr:mn:sc    elevation     azimuth    elevation   azimuth    (bk=180)     
  2018-04-25 05:22:26     11.3            136.2          18.4            91.2         136.1
  2018-04-25 06:58:16     49.8            153.9          33.5           111.1         144.7
  2018-04-25 08:34:40     67.1            353.2          46.4           136.9         116.8
  2018-04-25 10:11:15     80.6             13.0          53.2           172.2         134.2
  2018-04-25 11:47:30     31.2            212.2          50.2           210.0         161.0